Terminal Aerodrome Forecast
Issued by NWS

Home | Current Version | Previous Version | Text Only | Print | Product List | Glossary On
Versions: 1 2 3 4 5 6 7 8 9 10 11 12 13 14 15 16 17 18 19 20 21 22
000
FTAK31 PANC 241137
TAFADL
TAF
PADL 241137Z 2412/2512 20010KT 6SM -RA BKN009 OVC012
      TEMPO 2412/2415 SCT005 OVC012
     FM241600 19015G22KT P6SM -SHRA SCT010 BKN025 OVC035
     FM250300 17007KT P6SM -SHRA SCT025 BKN035=

USA.gov is the U.S. government's official web portal to all federal, state and local government web resources and services.